Tropical Cyclones
[Index]
Main Index Home Page Stock Weather Photos Extreme Storms Discussion Storm News and Storm Chasing Reports Tropical Cyclones / Hurricanes / Typhoons Weather Data and Links Wild Fires / Bushfires Weather Observation Techniques Weather Picture Catalogue Tornado Pictures and Reports Stock Video Footage and DVDs for sale
Season 1985-1986 Tropical Cyclone 198601 Track Map
Season 1985-1986 Summaries: [BoM-AU] [JTWC-AU] [JTWC-SIO] [JTWC-SPAC] [JTWC-SH]
<<- Previous TC | JTWC 1985-1986 Season | Next TC ->>

click for intensity scale information  Lat/long Grid: Show Hide

 Date Labels: Show Hide

Joint Typhoon Warning Centre Cyclone Data

Name: 198601

22 Sep 1985 06:00 UTC to 29 Sep 1985 18:00 UTC

    date/time    lat    long     hPa   cat  kts
1985-09-22 06   10.1    79.7                  25          
1985-09-22 12   10.4    78.6                  30          
1985-09-22 18   10.6    77.7                  35          
1985-09-23 00   10.6    76.9                  35          
1985-09-23 06   10.6    76.2                  35          
1985-09-23 12   10.6    75.7                  35          
1985-09-23 18   10.5    75.2                  35          
1985-09-24 00   10.4    74.8                  35          
1985-09-24 06   10.3    74.4                  35          
1985-09-24 12   10.2    74.0                  35          
1985-09-24 18   10.0    73.6            1     40          
1985-09-25 00    9.9    73.1            1     40          
1985-09-25 06    9.8    72.4            1     40          
1985-09-25 12    9.7    71.7            1     40          
1985-09-25 18    9.5    70.8            1     40          
1985-09-26 00    9.4    69.9            1     40          
1985-09-26 06    9.2    68.8            1     40          
1985-09-26 12    9.0    67.7            1     40          
1985-09-26 18    8.8    66.5            1     40          
1985-09-27 00    8.7    65.3            1     40          
1985-09-27 06    8.6    64.1            1     40          
1985-09-27 12    8.6    62.8            1     40          
1985-09-27 18    8.6    61.6            1     40          
1985-09-28 00    8.5    60.5            1     40          
1985-09-28 06    8.4    59.5                  35          
1985-09-28 12    8.2    58.5                  35          
1985-09-28 18    8.0    57.5                  30          
1985-09-29 00    7.8    56.7                  30          
1985-09-29 06    7.6    56.2                  30          
1985-09-29 12    7.4    55.7                  30          
1985-09-29 18    7.3    55.3                  25          
Winds are 1-min average.

Tropical cyclone tracks developed by Michael Bath using data from the Joint Typhoon Warning Centre Best Tracks and Google Maps.


[Australian Severe Weather index] [Copyright Notice] [Email Contacts] [Search This Site] [Privacy Policy]
Document: tropical_cyclone_198601.htm Updated: 18 September 2016